Latest Coastal Weather Observations for Dunalley

IDT60701

Issued at 2:02 am EDT Friday 3 February 2023 (issued every 10 minutes, with the page automatically refreshed every 10 minutes)

About coastal observations | Map of coastal stations | Coastal observations for TAS | Marine services | Other Formats
Station Details ID: 094254 Name: DUNALLEY (STROUD POINT) Lat: -42.90 Lon: 147.79 Height: 12.43 m
Data from the previous 72 hours. | See also: Recent months at Dunalley
Date/Time
EDT
Wind Sea
Height
m
Swell Vis
km
Cloud Weather Temp
°C
Press
MSL
hPa
Rain since
9am
mm
Dir  Spd
kts
Gust
kts
Height
m
Period
s
Dir
03/02:00am NW 5 7 - - - - - - - 10.7 984.7 1.8
03/01:30am WNW 6 8 - - - - - - - 10.4 984.3 1.8
03/01:00am NW 7 9 - - - - - - - 10.8 984.2 1.8
03/12:30am NW 7 9 - - - - - - - 10.9 984.5 1.8
03/12:00am WNW 6 8 - - - - - - - 10.6 983.8 1.8
 
Date/Time
EDT
Wind Sea
Height
m
Swell Vis
km
Cloud Weather Temp
°C
Press
MSL
hPa
Rain since
9am
mm
Dir  Spd
kts
Gust
kts
Height
m
Period
s
Dir
02/11:30pm NW 4 5 - - - - - - - 10.7 984.3 1.8
02/11:00pm NNW 5 8 - - - - - - - 11.3 984.7 1.8
02/10:30pm NNW 8 10 - - - - - - - 11.4 984.9 1.8
02/10:00pm NW 4 6 - - - - - - - 11.5 984.9 1.8
02/09:30pm NNE 2 3 - - - - - - - 11.6 984.9 1.8
02/09:00pm NNW 4 6 - - - - - - - 11.4 984.8 1.8
02/08:30pm N 3 4 - - - - - - - 12.0 984.6 1.8
02/08:00pm N 4 5 - - - - - - - 11.6 983.7 1.8
02/07:30pm NNW 3 5 - - - - - - - 11.6 983.3 1.8
02/07:00pm N 6 8 - - - - - - - 11.6 982.9 1.6
02/06:30pm NNW 9 15 - - - - - - - 12.1 983.2 1.2
02/06:00pm NNW 6 11 - - - - - - Rain 12.3 983.5 1.0
02/05:30pm WNW 15 23 - - - - - - - 12.4 983.5 0.6
02/05:23pm NW 19 32 - - - - - - - 13.7 983.2 0.4
02/05:19pm N 22 33 - - - - - - - 16.6 983.0 0.0
02/05:00pm N 25 36 - - - - - - - 17.8 982.0 0.0
02/04:30pm NNE 19 31 - - - - - - - 18.6 982.2 0.0
02/04:00pm N 21 32 - - - - - - - 18.4 982.5 0.0
02/03:32pm N 17 29 - - - - - - - 19.8 982.8 0.0
02/03:30pm N 16 24 - - - - - - - 21.0 982.9 0.0
02/03:00pm N 17 27 - - - - - - - 20.3 983.2 0.0
02/02:54pm N 16 27 - - - - - - - 19.9 983.2 0.0
02/02:30pm N 15 21 - - - - - - - 19.1 983.9 0.0
02/02:04pm NNE 15 25 - - - - - - - 19.8 984.1 0.0
02/02:00pm NNE 16 25 - - - - - - - 19.5 984.1 0.0
02/01:30pm N 16 21 - - - - - - - 18.8 984.6 0.0
02/01:09pm N 18 29 - - - - - - - 18.7 984.9 0.0
02/01:00pm N 18 27 - - - - - - - 18.9 985.0 0.0
02/12:55pm N 14 26 - - - - - - - 18.4 985.1 0.0
02/12:30pm NNE 13 21 - - - - - - - 16.6 985.7 0.0
02/12:00pm NE 12 15 - - - - - - - 15.1 986.6 0.0
02/11:30am NE 11 17 - - - - - - - 14.6 987.4 0.0
02/11:00am NNE 9 12 - - - - - - - 14.9 988.0 0.0
02/10:30am NNE 8 13 - - - - - - - 13.6 988.6 0.0
02/10:00am NNW 5 8 - - - - - - - 13.7 989.2 0.0
02/09:30am NNW 5 9 - - - - - - - 13.2 989.8 0.0
02/09:00am NNW 10 14 - - - - - - - 13.1 990.2 1.2
02/08:30am NNW 5 10 - - - - - - - 12.6 990.9 1.2
02/08:00am NNW 6 9 - - - - - - - 12.4 991.2 1.2
02/07:30am NW 9 13 - - - - - - - 12.4 991.9 1.2
02/07:00am NW 8 11 - - - - - - - 12.2 992.5 1.2
02/06:30am NNW 7 8 - - - - - - - 11.8 993.0 1.2
02/06:00am NNE 4 5 - - - - - - - 12.2 993.2 1.2
02/05:30am NE 7 8 - - - - - - - 12.4 993.3 1.2
02/05:00am NE 7 10 - - - - - - - 12.5 993.7 1.2
02/04:30am NNE 9 11 - - - - - - - 12.6 994.4 1.2
02/04:00am NNE 9 13 - - - - - - - 13.2 994.9 1.2
02/03:30am N 6 8 - - - - - - - 13.2 995.6 1.2
02/03:00am N 5 7 - - - - - - - 12.7 996.3 1.2
02/02:30am N 6 9 - - - - - - - 12.7 997.1 1.2
02/02:00am N 6 10 - - - - - - - 12.5 997.9 1.2
02/01:30am NNW 5 6 - - - - - - - 11.4 998.3 1.2
02/01:00am NNE 2 4 - - - - - - - 9.9 998.7 1.2
02/12:30am NNE 3 4 - - - - - - - 10.6 999.1 1.2
02/12:00am NNE 4 5 - - - - - - - 9.9 999.4 1.2
 
Date/Time
EDT
Wind Sea
Height
m
Swell Vis
km
Cloud Weather Temp
°C
Press
MSL
hPa
Rain since
9am
mm
Dir  Spd
kts
Gust
kts
Height
m
Period
s
Dir
01/11:30pm NNE 5 5 - - - - - - - 10.3 1000.0 1.2
01/11:00pm NNE 5 6 - - - - - - - 10.1 1000.3 1.2
01/10:30pm NE 3 4 - - - - - - - 10.9 1000.7 1.2
01/10:00pm E 4 6 - - - - - - - 12.1 1000.8 1.2
01/09:30pm SE 6 9 - - - - - - - 13.4 1000.8 1.2
01/09:00pm SSE 7 10 - - - - - - - 13.9 1000.9 1.2
01/08:30pm S 9 12 - - - - - - - 14.5 1000.7 1.2
01/08:00pm S 9 11 - - - - - - - 15.1 1000.5 1.2
01/07:30pm SSW 15 19 - - - - - - - 15.7 1000.3 1.2
01/07:00pm S 13 17 - - - - - - - 15.4 1000.1 1.2
01/06:30pm SSW 13 18 - - - - - - - 16.6 1000.0 1.2
01/06:00pm SSW 17 21 - - - - - - - 16.8 1000.0 1.2
01/05:30pm SSW 17 23 - - - - - - - 17.2 1000.1 1.2
01/05:00pm S 22 27 - - - - - - - 15.8 1000.5 1.2
01/04:30pm SSW 17 26 - - - - - - - 17.6 1000.6 1.2
01/04:00pm SW 20 27 - - - - - - - 15.0 1000.9 1.2
01/03:30pm SW 15 21 - - - - - - - 17.5 1000.8 1.2
01/03:00pm SW 16 20 - - - - - - - 17.2 1000.7 1.2
01/02:30pm SW 14 18 - - - - - - - 16.9 1000.7 1.2
01/02:00pm SW 15 19 - - - - - - - 15.1 1000.7 1.2
01/01:30pm SW 16 19 - - - - - - - 13.7 1001.0 1.2
01/01:00pm SW 23 28 - - - - - - - 15.0 1001.2 1.2
01/12:30pm SW 20 24 - - - - - - - 13.8 1001.1 1.2
01/12:00pm SW 20 25 - - - - - - Rain 13.0 1001.2 0.6
01/11:30am SSW 20 25 - - - - - - - 13.3 1001.0 0.2
01/11:00am SW 22 29 - - - - - - - 13.5 1000.8 0.2
01/10:30am SW 21 25 - - - - - - - 13.7 1000.3 0.0
01/10:00am SSW 26 32 - - - - - - - 15.4 999.4 0.0
01/09:53am WSW 19 30 - - - - - - - 17.1 999.1 0.0
01/09:51am WSW 16 29 - - - - - - - 18.2 998.8 0.0
01/09:30am WSW 12 15 - - - - - - - 19.0 998.6 0.0
01/09:00am WNW 9 16 - - - - - - - 19.9 998.6 0.0
01/08:30am NW 7 11 - - - - - - - 18.7 998.7 0.0
01/08:00am NW 7 10 - - - - - - - 17.6 998.9 0.0
01/07:30am NW 4 8 - - - - - - - 16.0 998.9 0.0
01/07:00am NNW 6 12 - - - - - - - 15.9 998.9 0.0
01/06:30am NW 6 9 - - - - - - - 14.7 999.0 0.0
01/06:00am NW 6 9 - - - - - - - 14.6 999.0 0.0
01/05:30am WNW 7 8 - - - - - - - 14.4 999.3 0.0
01/05:00am WNW 6 8 - - - - - - - 15.2 999.4 0.0
01/04:30am WNW 3 4 - - - - - - - 15.1 999.5 0.0
01/04:00am WNW 6 7 - - - - - - - 15.7 999.5 0.0
01/03:30am WSW 7 9 - - - - - - - 17.3 999.7 0.0
01/03:00am SW 7 9 - - - - - - - 16.9 1000.1 0.0
01/02:30am WSW 7 8 - - - - - - - 17.2 1000.1 0.0
01/02:00am SW 7 9 - - - - - - - 17.6 1000.6 0.0
01/01:30am WSW 9 10 - - - - - - - 17.6 1000.9 0.0
01/01:00am WSW 10 12 - - - - - - - 17.8 1001.5 0.0
01/12:30am WSW 12 14 - - - - - - - 18.3 1001.7 0.0
01/12:00am WSW 10 12 - - - - - - - 19.0 1001.8 0.0
 
Date/Time
EDT
Wind Sea
Height
m
Swell Vis
km
Cloud Weather Temp
°C
Press
MSL
hPa
Rain since
9am
mm
Dir  Spd
kts
Gust
kts
Height
m
Period
s
Dir
31/11:30pm S 4 5 - - - - - - - 18.8 1002.1 0.0
31/11:00pm S 6 7 - - - - - - - 18.9 1002.3 0.0
31/10:30pm S 3 3 - - - - - - - 18.7 1002.6 0.0
31/10:00pm E 3 3 - - - - - - - 18.0 1002.6 0.0
31/09:30pm ESE 4 5 - - - - - - - 18.8 1002.5 0.0
31/09:00pm SE 6 8 - - - - - - - 19.2 1002.6 0.0
31/08:30pm SE 5 7 - - - - - - - 19.6 1002.5 0.0
31/08:00pm ESE 6 7 - - - - - - - 19.9 1002.2 0.0
31/07:30pm ESE 5 7 - - - - - - - 20.2 1002.0 0.0
31/07:00pm E 8 11 - - - - - - - 21.1 1001.9 0.0
31/06:30pm ENE 10 14 - - - - - - - 20.8 1001.8 0.0
31/06:00pm ENE 12 16 - - - - - - - 21.7 1001.8 0.0
31/05:30pm NE 13 16 - - - - - - - 22.3 1002.2 0.0
31/05:00pm ENE 12 15 - - - - - - - 22.3 1002.3 0.0
31/04:30pm ENE 13 16 - - - - - - - 22.7 1002.7 0.0
31/04:00pm ENE 15 20 - - - - - - - 21.6 1003.0 0.0
31/03:30pm ENE 15 19 - - - - - - - 22.7 1003.5 0.0
31/03:00pm ENE 13 17 - - - - - - - 22.9 1003.7 0.0
31/02:30pm ENE 14 18 - - - - - - - 23.1 1004.1 0.0
31/02:00pm NE 13 17 - - - - - - - 23.5 1004.2 0.0
31/01:30pm NE 12 15 - - - - - - - 23.9 1004.5 0.0
31/01:00pm ENE 7 9 - - - - - - - 22.7 1004.9 0.0
31/12:30pm SSE 4 5 - - - - - - - 22.7 1005.3 0.0
31/12:00pm SE 5 6 - - - - - - - 20.6 1005.7 0.0
31/11:30am S 5 6 - - - - - - - 20.6 1006.2 0.0
31/11:00am SSW 4 6 - - - - - - - 21.1 1006.3 0.0
31/10:30am SW 6 7 - - - - - - - 19.8 1006.8 0.0
31/10:00am WNW 5 10 - - - - - - - 20.8 1007.0 0.0
31/09:30am N 5 7 - - - - - - - 19.3 1007.4 0.0
31/09:00am WNW 5 7 - - - - - - - 18.3 1007.8 0.0
31/08:30am WNW 3 5 - - - - - - - 18.0 1007.7 0.0
31/08:00am NW 3 4 - - - - - - - 17.2 1007.7 0.0
31/07:30am NW 3 4 - - - - - - - 16.8 1007.7 0.0
31/07:00am NNW 4 5 - - - - - - - 16.4 1007.6 0.0
31/06:30am NNW 5 7 - - - - - - - 16.2 1007.4 0.0
31/06:00am NW 6 7 - - - - - - - 16.3 1007.4 0.0
31/05:30am NW 6 7 - - - - - - - 16.5 1007.4 0.0
31/05:00am NNW 4 6 - - - - - - - 16.6 1007.5 0.0
31/04:30am N 4 6 - - - - - - - 16.8 1007.6 0.0
31/04:00am NNE 2 3 - - - - - - - 16.8 1007.7 0.0
31/03:30am NNE 3 3 - - - - - - - 16.8 1008.1 0.0
31/03:00am NNE 3 3 - - - - - - - 17.0 1008.3 0.0
31/02:30am NNE 3 3 - - - - - - - 17.0 1008.7 0.0

Other formats

Comma delimited format used in spreadsheet applications
http://www.bom.gov.au/fwo/IDT60701/IDT60701.94951.axf

JavaScript Object Notation format (JSON) in row-major order
http://www.bom.gov.au/fwo/IDT60701/IDT60701.94951.json

Data quality

Most of these data are generated automatically and are frequently updated. Quality checks on data are not normally performed. It is possible for incorrect values to appear. Refer to information at About Latest Weather Observations and please check the disclaimer before using these data.